sensor_id;sensor_type;location;lat;lon;timestamp;pressure;altitude;pressure_sealevel;temperature;humidity
56721;BME280;53183;47.412;18.884;2022-12-20T00:01:25;101012.06;;;-2.20;100.00
56721;BME280;53183;47.412;18.884;2022-12-20T00:03:55;101015.69;;;-2.12;100.00
56721;BME280;53183;47.412;18.884;2022-12-20T00:06:22;101025.94;;;-2.17;100.00
56721;BME280;53183;47.412;18.884;2022-12-20T00:08:54;101033.09;;;-2.06;100.00
56721;BME280;53183;47.412;18.884;2022-12-20T00:11:23;101037.31;;;-2.10;100.00
56721;BME280;53183;47.412;18.884;2022-12-20T00:13:51;101036.69;;;-2.00;100.00
56721;BME280;53183;47.412;18.884;2022-12-20T00:16:20;101040.44;;;-1.85;100.00
56721;BME280;53183;47.412;18.884;2022-12-20T00:18:53;101033.53;;;-1.85;100.00
56721;BME280;53183;47.412;18.884;2022-12-20T00:21:21;101035.19;;;-1.89;100.00
56721;BME280;53183;47.412;18.884;2022-12-20T00:23:50;101041.50;;;-1.76;100.00
56721;BME280;53183;47.412;18.884;2022-12-20T00:26:20;101038.91;;;-1.77;100.00
56721;BME280;53183;47.412;18.884;2022-12-20T00:28:47;101042.31;;;-1.78;100.00
56721;BME280;53183;47.412;18.884;2022-12-20T00:31:17;101029.41;;;-1.75;100.00
56721;BME280;53183;47.412;18.884;2022-12-20T00:33:47;101007.97;;;-1.68;100.00
56721;BME280;53183;47.412;18.884;2022-12-20T00:36:16;101004.69;;;-1.61;100.00
56721;BME280;53183;47.412;18.884;2022-12-20T00:38:50;101015.78;;;-1.67;100.00
56721;BME280;53183;47.412;18.884;2022-12-20T00:41:31;101018.44;;;-1.63;100.00
56721;BME280;53183;47.412;18.884;2022-12-20T00:44:00;101015.66;;;-1.73;100.00
56721;BME280;53183;47.412;18.884;2022-12-20T00:46:28;101014.06;;;-1.66;100.00
56721;BME280;53183;47.412;18.884;2022-12-20T00:48:55;101009.72;;;-1.67;100.00
56721;BME280;53183;47.412;18.884;2022-12-20T00:51:25;101006.22;;;-1.69;100.00
56721;BME280;53183;47.412;18.884;2022-12-20T00:53:52;100999.31;;;-1.70;100.00
56721;BME280;53183;47.412;18.884;2022-12-20T00:56:21;100990.78;;;-1.64;100.00
56721;BME280;53183;47.412;18.884;2022-12-20T00:58:48;100990.47;;;-1.80;100.00
56721;BME280;53183;47.412;18.884;2022-12-20T01:01:28;100988.94;;;-1.70;100.00
56721;BME280;53183;47.412;18.884;2022-12-20T01:03:56;100987.94;;;-1.77;100.00
56721;BME280;53183;47.412;18.884;2022-12-20T01:06:24;100984.53;;;-1.74;100.00
56721;BME280;53183;47.412;18.884;2022-12-20T01:08:53;100989.63;;;-1.79;100.00
56721;BME280;53183;47.412;18.884;2022-12-20T01:11:29;100987.09;;;-1.76;100.00
56721;BME280;53183;47.412;18.884;2022-12-20T01:14:00;100985.28;;;-1.80;100.00
56721;BME280;53183;47.412;18.884;2022-12-20T01:16:34;100985.31;;;-1.78;100.00
56721;BME280;53183;47.412;18.884;2022-12-20T01:19:03;100983.47;;;-1.84;100.00
56721;BME280;53183;47.412;18.884;2022-12-20T01:21:31;100981.84;;;-1.79;100.00
56721;BME280;53183;47.412;18.884;2022-12-20T01:23:58;100986.22;;;-1.75;100.00
56721;BME280;53183;47.412;18.884;2022-12-20T01:26:28;100987.16;;;-1.71;100.00
56721;BME280;53183;47.412;18.884;2022-12-20T01:28:57;100992.41;;;-1.68;100.00
56721;BME280;53183;47.412;18.884;2022-12-20T01:31:26;100993.13;;;-1.75;100.00
56721;BME280;53183;47.412;18.884;2022-12-20T01:33:54;100982.91;;;-1.69;100.00
56721;BME280;53183;47.412;18.884;2022-12-20T01:36:30;100965.53;;;-1.73;100.00
56721;BME280;53183;47.412;18.884;2022-12-20T01:39:11;100957.59;;;-1.82;100.00
56721;BME280;53183;47.412;18.884;2022-12-20T01:41:40;100950.69;;;-1.82;100.00
56721;BME280;53183;47.412;18.884;2022-12-20T01:46:49;100943.84;;;-1.78;100.00
56721;BME280;53183;47.412;18.884;2022-12-20T01:49:21;100947.91;;;-1.91;100.00
56721;BME280;53183;47.412;18.884;2022-12-20T01:51:56;100943.69;;;-1.86;100.00
56721;BME280;53183;47.412;18.884;2022-12-20T01:54:32;100933.28;;;-1.89;100.00
56721;BME280;53183;47.412;18.884;2022-12-20T01:57:03;100933.28;;;-1.89;100.00
56721;BME280;53183;47.412;18.884;2022-12-20T01:59:36;100926.28;;;-1.93;100.00
56721;BME280;53183;47.412;18.884;2022-12-20T02:02:06;100916.84;;;-1.90;100.00
56721;BME280;53183;47.412;18.884;2022-12-20T02:04:34;100921.84;;;-2.00;100.00
56721;BME280;53183;47.412;18.884;2022-12-20T02:07:02;100918.31;;;-2.02;100.00
56721;BME280;53183;47.412;18.884;2022-12-20T02:09:32;100920.06;;;-2.01;100.00
56721;BME280;53183;47.412;18.884;2022-12-20T02:12:14;100906.22;;;-2.03;100.00
56721;BME280;53183;47.412;18.884;2022-12-20T02:22:46;100898.00;;;-2.25;100.00
56721;BME280;53183;47.412;18.884;2022-12-20T02:29:04;100902.22;;;-2.30;100.00
56721;BME280;53183;47.412;18.884;2022-12-20T02:32:16;100902.25;;;-2.28;100.00
56721;BME280;53183;47.412;18.884;2022-12-20T02:34:46;100907.63;;;-2.19;100.00
56721;BME280;53183;47.412;18.884;2022-12-20T02:37:13;100904.87;;;-2.27;100.00
56721;BME280;53183;47.412;18.884;2022-12-20T02:39:41;100890.22;;;-2.26;100.00
56721;BME280;53183;47.412;18.884;2022-12-20T02:42:11;100890.22;;;-2.25;100.00
56721;BME280;53183;47.412;18.884;2022-12-20T02:44:46;100886.00;;;-2.21;100.00
56721;BME280;53183;47.412;18.884;2022-12-20T02:47:42;100885.13;;;-2.22;100.00
56721;BME280;53183;47.412;18.884;2022-12-20T02:50:11;100888.66;;;-2.18;100.00
56721;BME280;53183;47.412;18.884;2022-12-20T02:52:39;100883.31;;;-2.26;100.00
56721;BME280;53183;47.412;18.884;2022-12-20T02:55:10;100879.88;;;-2.25;100.00
56721;BME280;53183;47.412;18.884;2022-12-20T02:57:50;100881.06;;;-2.09;100.00
56721;BME280;53183;47.412;18.884;2022-12-20T03:00:30;100881.16;;;-2.04;100.00
56721;BME280;53183;47.412;18.884;2022-12-20T03:03:00;100871.69;;;-2.02;100.00
56721;BME280;53183;47.412;18.884;2022-12-20T03:05:48;100859.78;;;-1.93;100.00
56721;BME280;53183;47.412;18.884;2022-12-20T03:08:16;100863.25;;;-1.92;100.00
56721;BME280;53183;47.412;18.884;2022-12-20T03:10:44;100864.91;;;-1.96;100.00
56721;BME280;53183;47.412;18.884;2022-12-20T03:13:11;100867.44;;;-2.00;100.00
56721;BME280;53183;47.412;18.884;2022-12-20T03:15:42;100866.34;;;-2.12;100.00
56721;BME280;53183;47.412;18.884;2022-12-20T03:18:09;100876.00;;;-2.03;100.00
56721;BME280;53183;47.412;18.884;2022-12-20T03:20:37;100866.44;;;-2.07;100.00
56721;BME280;53183;47.412;18.884;2022-12-20T03:23:05;100860.34;;;-2.09;100.00
56721;BME280;53183;47.412;18.884;2022-12-20T03:25:32;100864.72;;;-2.06;100.00
56721;BME280;53183;47.412;18.884;2022-12-20T03:28:00;100851.72;;;-2.09;100.00
56721;BME280;53183;47.412;18.884;2022-12-20T03:30:28;100847.25;;;-2.17;100.00
56721;BME280;53183;47.412;18.884;2022-12-20T03:32:55;100857.69;;;-2.14;100.00
56721;BME280;53183;47.412;18.884;2022-12-20T03:35:22;100854.84;;;-2.26;100.00
56721;BME280;53183;47.412;18.884;2022-12-20T03:37:50;100858.22;;;-2.30;100.00
56721;BME280;53183;47.412;18.884;2022-12-20T03:40:17;100849.59;;;-2.29;100.00
56721;BME280;53183;47.412;18.884;2022-12-20T03:42:44;100859.22;;;-2.23;100.00
56721;BME280;53183;47.412;18.884;2022-12-20T03:45:11;100864.22;;;-2.31;100.00
56721;BME280;53183;47.412;18.884;2022-12-20T03:47:38;100870.22;;;-2.33;100.00
56721;BME280;53183;47.412;18.884;2022-12-20T03:50:06;100869.97;;;-2.46;100.00
56721;BME280;53183;47.412;18.884;2022-12-20T03:52:34;100872.41;;;-2.52;100.00
56721;BME280;53183;47.412;18.884;2022-12-20T03:55:01;100864.84;;;-2.43;100.00
56721;BME280;53183;47.412;18.884;2022-12-20T03:57:29;100863.06;;;-2.45;100.00
56721;BME280;53183;47.412;18.884;2022-12-20T03:59:57;100860.53;;;-2.42;100.00
56721;BME280;53183;47.412;18.884;2022-12-20T04:02:24;100858.16;;;-2.31;100.00
56721;BME280;53183;47.412;18.884;2022-12-20T04:04:52;100851.25;;;-2.31;100.00
56721;BME280;53183;47.412;18.884;2022-12-20T04:07:20;100851.09;;;-2.40;100.00
56721;BME280;53183;47.412;18.884;2022-12-20T04:09:47;100845.09;;;-2.38;100.00
56721;BME280;53183;47.412;18.884;2022-12-20T04:12:14;100833.00;;;-2.40;100.00
56721;BME280;53183;47.412;18.884;2022-12-20T04:14:42;100830.50;;;-2.34;100.00
56721;BME280;53183;47.412;18.884;2022-12-20T04:17:09;100824.38;;;-2.38;100.00
56721;BME280;53183;47.412;18.884;2022-12-20T04:19:37;100812.47;;;-2.29;100.00
56721;BME280;53183;47.412;18.884;2022-12-20T04:22:05;100810.81;;;-2.26;100.00
56721;BME280;53183;47.412;18.884;2022-12-20T04:24:34;100810.69;;;-2.32;100.00
56721;BME280;53183;47.412;18.884;2022-12-20T04:27:02;100808.12;;;-2.30;100.00
56721;BME280;53183;47.412;18.884;2022-12-20T04:29:30;100797.81;;;-2.29;100.00
56721;BME280;53183;47.412;18.884;2022-12-20T04:31:57;100804.78;;;-2.26;100.00
56721;BME280;53183;47.412;18.884;2022-12-20T04:34:25;100809.19;;;-2.21;100.00
56721;BME280;53183;47.412;18.884;2022-12-20T04:36:52;100794.59;;;-2.17;100.00
56721;BME280;53183;47.412;18.884;2022-12-20T04:39:20;100787.66;;;-2.18;100.00
56721;BME280;53183;47.412;18.884;2022-12-20T04:41:50;100792.94;;;-2.14;100.00
56721;BME280;53183;47.412;18.884;2022-12-20T04:44:17;100800.72;;;-2.12;100.00
56721;BME280;53183;47.412;18.884;2022-12-20T04:46:44;100798.16;;;-2.10;100.00
56721;BME280;53183;47.412;18.884;2022-12-20T04:49:13;100802.56;;;-2.05;100.00
56721;BME280;53183;47.412;18.884;2022-12-20T04:51:40;100802.41;;;-2.14;100.00
56721;BME280;53183;47.412;18.884;2022-12-20T04:54:09;100806.63;;;-2.19;100.00
56721;BME280;53183;47.412;18.884;2022-12-20T04:56:37;100820.25;;;-2.28;100.00
56721;BME280;53183;47.412;18.884;2022-12-20T04:59:06;100819.47;;;-2.24;100.00
56721;BME280;53183;47.412;18.884;2022-12-20T05:01:34;100817.94;;;-2.14;100.00
56721;BME280;53183;47.412;18.884;2022-12-20T05:04:02;100821.25;;;-2.23;100.00
56721;BME280;53183;47.412;18.884;2022-12-20T05:06:30;100833.22;;;-2.28;100.00
56721;BME280;53183;47.412;18.884;2022-12-20T05:08:57;100819.56;;;-2.19;100.00
56721;BME280;53183;47.412;18.884;2022-12-20T05:11:25;100822.09;;;-2.22;100.00
56721;BME280;53183;47.412;18.884;2022-12-20T05:13:54;100827.09;;;-2.33;100.00
56721;BME280;53183;47.412;18.884;2022-12-20T05:16:21;100832.53;;;-2.19;100.00
56721;BME280;53183;47.412;18.884;2022-12-20T05:18:49;100834.44;;;-2.10;100.00
56721;BME280;53183;47.412;18.884;2022-12-20T05:21:17;100837.91;;;-2.08;100.00
56721;BME280;53183;47.412;18.884;2022-12-20T05:24:03;100834.44;;;-2.10;100.00
56721;BME280;53183;47.412;18.884;2022-12-20T05:26:50;100833.56;;;-2.09;100.00
56721;BME280;53183;47.412;18.884;2022-12-20T05:29:18;100842.97;;;-2.15;100.00
56721;BME280;53183;47.412;18.884;2022-12-20T05:31:45;100840.22;;;-2.22;100.00
56721;BME280;53183;47.412;18.884;2022-12-20T05:34:14;100837.81;;;-2.13;100.00
56721;BME280;53183;47.412;18.884;2022-12-20T05:36:43;100835.12;;;-2.18;100.00
56721;BME280;53183;47.412;18.884;2022-12-20T05:39:10;100831.62;;;-2.21;100.00
56721;BME280;53183;47.412;18.884;2022-12-20T05:41:39;100831.66;;;-2.20;100.00
56721;BME280;53183;47.412;18.884;2022-12-20T05:44:06;100835.19;;;-2.15;100.00
56721;BME280;53183;47.412;18.884;2022-12-20T05:46:34;100837.72;;;-2.19;100.00
56721;BME280;53183;47.412;18.884;2022-12-20T05:49:02;100836.84;;;-2.20;100.00
56721;BME280;53183;47.412;18.884;2022-12-20T05:51:30;100828.34;;;-2.13;100.00
56721;BME280;53183;47.412;18.884;2022-12-20T05:53:57;100828.84;;;-2.30;100.00
56721;BME280;53183;47.412;18.884;2022-12-20T05:56:26;100818.47;;;-2.30;100.00
56721;BME280;53183;47.412;18.884;2022-12-20T05:58:54;100815.88;;;-2.32;100.00
56721;BME280;53183;47.412;18.884;2022-12-20T06:01:22;100808.97;;;-2.33;100.00
56721;BME280;53183;47.412;18.884;2022-12-20T06:03:52;100805.50;;;-2.32;100.00
56721;BME280;53183;47.412;18.884;2022-12-20T06:06:20;100805.50;;;-2.33;100.00
56721;BME280;53183;47.412;18.884;2022-12-20T06:08:48;100804.53;;;-2.39;100.00
56721;BME280;53183;47.412;18.884;2022-12-20T06:11:15;100805.47;;;-2.35;100.00
56721;BME280;53183;47.412;18.884;2022-12-20T06:13:43;100801.88;;;-2.42;100.00
56721;BME280;53183;47.412;18.884;2022-12-20T06:16:10;100796.00;;;-2.33;100.00
56721;BME280;53183;47.412;18.884;2022-12-20T06:18:40;100798.81;;;-2.22;100.00
56721;BME280;53183;47.412;18.884;2022-12-20T06:21:09;100794.62;;;-2.16;100.00
56721;BME280;53183;47.412;18.884;2022-12-20T06:23:37;100798.19;;;-2.09;100.00
56721;BME280;53183;47.412;18.884;2022-12-20T06:26:08;100781.53;;;-2.22;100.00
56721;BME280;53183;47.412;18.884;2022-12-20T06:28:35;100780.03;;;-2.10;100.00
56721;BME280;53183;47.412;18.884;2022-12-20T06:31:09;100795.34;;;-2.23;100.00
56721;BME280;53183;47.412;18.884;2022-12-20T06:33:37;100803.84;;;-2.30;100.00
56721;BME280;53183;47.412;18.884;2022-12-20T06:36:06;100792.69;;;-2.26;100.00
56721;BME280;53183;47.412;18.884;2022-12-20T06:38:33;100788.06;;;-2.42;100.00
56721;BME280;53183;47.412;18.884;2022-12-20T06:41:01;100787.16;;;-2.44;100.00
56721;BME280;53183;47.412;18.884;2022-12-20T06:43:28;100795.81;;;-2.42;100.00
56721;BME280;53183;47.412;18.884;2022-12-20T06:45:58;100785.50;;;-2.41;100.00
56721;BME280;53183;47.412;18.884;2022-12-20T06:48:25;100780.31;;;-2.41;100.00
56721;BME280;53183;47.412;18.884;2022-12-20T06:50:52;100784.75;;;-2.35;100.00
56721;BME280;53183;47.412;18.884;2022-12-20T06:53:25;100781.22;;;-2.39;100.00
56721;BME280;53183;47.412;18.884;2022-12-20T06:55:52;100777.03;;;-2.32;100.00
56721;BME280;53183;47.412;18.884;2022-12-20T06:58:20;100769.37;;;-2.26;100.00
56721;BME280;53183;47.412;18.884;2022-12-20T07:00:47;100764.22;;;-2.26;100.00
56721;BME280;53183;47.412;18.884;2022-12-20T07:03:14;100768.63;;;-2.20;100.00
56721;BME280;53183;47.412;18.884;2022-12-20T07:05:42;100767.91;;;-2.13;100.00
56721;BME280;53183;47.412;18.884;2022-12-20T07:08:09;100762.91;;;-2.02;100.00
56721;BME280;53183;47.412;18.884;2022-12-20T07:10:36;100757.72;;;-2.02;100.00
56721;BME280;53183;47.412;18.884;2022-12-20T07:13:03;100759.50;;;-2.00;100.00
56721;BME280;53183;47.412;18.884;2022-12-20T07:15:32;100762.91;;;-2.01;100.00
56721;BME280;53183;47.412;18.884;2022-12-20T07:18:01;100756.97;;;-1.97;100.00
56721;BME280;53183;47.412;18.884;2022-12-20T07:20:28;100751.84;;;-1.92;100.00
56721;BME280;53183;47.412;18.884;2022-12-20T07:22:56;100745.91;;;-1.85;100.00
56721;BME280;53183;47.412;18.884;2022-12-20T07:25:23;100759.03;;;-1.77;100.00
56721;BME280;53183;47.412;18.884;2022-12-20T07:27:51;100768.47;;;-1.79;100.00
56721;BME280;53183;47.412;18.884;2022-12-20T07:30:19;100771.12;;;-1.75;100.00
56721;BME280;53183;47.412;18.884;2022-12-20T07:32:47;100770.41;;;-1.68;100.00
56721;BME280;53183;47.412;18.884;2022-12-20T07:35:14;100779.22;;;-1.56;99.50
56721;BME280;53183;47.412;18.884;2022-12-20T07:37:41;100777.53;;;-1.54;99.80
56721;BME280;53183;47.412;18.884;2022-12-20T07:40:10;100785.47;;;-1.44;98.67
56721;BME280;53183;47.412;18.884;2022-12-20T07:42:37;100775.97;;;-1.43;98.68
56721;BME280;53183;47.412;18.884;2022-12-20T07:45:14;100765.59;;;-1.43;98.32
56721;BME280;53183;47.412;18.884;2022-12-20T07:47:41;100770.81;;;-1.42;98.36
56721;BME280;53183;47.412;18.884;2022-12-20T07:50:10;100763.13;;;-1.35;97.81
56721;BME280;53183;47.412;18.884;2022-12-20T07:52:39;100768.16;;;-1.46;98.63
56721;BME280;53183;47.412;18.884;2022-12-20T07:55:08;100755.28;;;-1.38;98.25
56721;BME280;53183;47.412;18.884;2022-12-20T07:57:43;100751.81;;;-1.40;97.40
56721;BME280;53183;47.412;18.884;2022-12-20T08:00:13;100742.16;;;-1.51;98.11
56721;BME280;53183;47.412;18.884;2022-12-20T08:02:48;100743.09;;;-1.46;97.75
56721;BME280;53183;47.412;18.884;2022-12-20T08:05:18;100750.16;;;-1.37;97.75
56721;BME280;53183;47.412;18.884;2022-12-20T08:07:49;100752.84;;;-1.31;97.18
56721;BME280;53183;47.412;18.884;2022-12-20T08:10:25;100744.19;;;-1.31;97.77
56721;BME280;53183;47.412;18.884;2022-12-20T08:12:53;100724.47;;;-1.19;97.23
56721;BME280;53183;47.412;18.884;2022-12-20T08:15:21;100719.31;;;-1.15;97.12
56721;BME280;53183;47.412;18.884;2022-12-20T08:17:49;100716.88;;;-1.05;95.39
56721;BME280;53183;47.412;18.884;2022-12-20T08:20:17;100719.53;;;-1.02;95.53
56721;BME280;53183;47.412;18.884;2022-12-20T08:22:44;100722.09;;;-1.03;95.52
56721;BME280;53183;47.412;18.884;2022-12-20T08:25:11;100719.44;;;-1.06;95.60
56721;BME280;53183;47.412;18.884;2022-12-20T08:27:39;100730.78;;;-1.01;95.51
56721;BME280;53183;47.412;18.884;2022-12-20T08:30:06;100734.44;;;-0.84;94.42
56721;BME280;53183;47.412;18.884;2022-12-20T08:32:35;100725.94;;;-0.71;93.89
56721;BME280;53183;47.412;18.884;2022-12-20T08:35:04;100715.56;;;-0.71;93.84
56721;BME280;53183;47.412;18.884;2022-12-20T08:37:31;100720.78;;;-0.67;93.48
56721;BME280;53183;47.412;18.884;2022-12-20T08:39:58;100726.81;;;-0.72;93.62
56721;BME280;53183;47.412;18.884;2022-12-20T08:42:27;100726.84;;;-0.67;93.90
56721;BME280;53183;47.412;18.884;2022-12-20T08:44:55;100724.34;;;-0.62;93.16
56721;BME280;53183;47.412;18.884;2022-12-20T08:47:22;100712.13;;;-0.68;93.28
56721;BME280;53183;47.412;18.884;2022-12-20T08:49:49;100714.78;;;-0.63;93.51
56721;BME280;53183;47.412;18.884;2022-12-20T08:52:17;100711.31;;;-0.64;93.26
56721;BME280;53183;47.412;18.884;2022-12-20T08:54:44;100716.56;;;-0.58;92.45
56721;BME280;53183;47.412;18.884;2022-12-20T08:57:12;100711.31;;;-0.65;92.59
56721;BME280;53183;47.412;18.884;2022-12-20T08:59:39;100707.94;;;-0.58;92.51
56721;BME280;53183;47.412;18.884;2022-12-20T09:02:06;100708.81;;;-0.55;92.22
56721;BME280;53183;47.412;18.884;2022-12-20T09:04:34;100704.56;;;-0.47;91.58
56721;BME280;53183;47.412;18.884;2022-12-20T09:07:01;100709.75;;;-0.47;91.42
56721;BME280;53183;47.412;18.884;2022-12-20T09:09:29;100712.47;;;-0.37;91.53
56721;BME280;53183;47.412;18.884;2022-12-20T09:11:56;100722.91;;;-0.31;90.98
56721;BME280;53183;47.412;18.884;2022-12-20T09:14:23;100723.75;;;-0.34;90.71
56721;BME280;53183;47.412;18.884;2022-12-20T09:16:50;100727.41;;;-0.16;90.45
56721;BME280;53183;47.412;18.884;2022-12-20T09:19:18;100726.53;;;-0.14;90.22
56721;BME280;53183;47.412;18.884;2022-12-20T09:21:45;100720.56;;;-0.05;89.19
56721;BME280;53183;47.412;18.884;2022-12-20T09:24:12;100721.44;;;-0.05;88.47
56721;BME280;53183;47.412;18.884;2022-12-20T09:26:39;100730.22;;;0.10;88.86
56721;BME280;53183;47.412;18.884;2022-12-20T09:29:06;100724.22;;;0.15;87.44
56721;BME280;53183;47.412;18.884;2022-12-20T09:31:33;100716.50;;;0.28;87.51
56721;BME280;53183;47.412;18.884;2022-12-20T09:34:01;100700.03;;;0.26;86.97
56721;BME280;53183;47.412;18.884;2022-12-20T09:36:29;100686.19;;;0.27;86.39
56721;BME280;53183;47.412;18.884;2022-12-20T09:38:56;100681.03;;;0.34;86.14
56721;BME280;53183;47.412;18.884;2022-12-20T09:41:35;100684.50;;;0.39;86.57
56721;BME280;53183;47.412;18.884;2022-12-20T09:46:46;100671.50;;;0.35;86.09
56721;BME280;53183;47.412;18.884;2022-12-20T09:49:18;100674.09;;;0.35;86.01
56721;BME280;53183;47.412;18.884;2022-12-20T09:51:54;100668.03;;;0.34;86.26
56721;BME280;53183;47.412;18.884;2022-12-20T10:00:14;100660.28;;;0.40;85.88
56721;BME280;53183;47.412;18.884;2022-12-20T10:02:42;100659.50;;;0.54;85.37
56721;BME280;53183;47.412;18.884;2022-12-20T10:05:52;100663.84;;;0.56;85.66
56721;BME280;53183;47.412;18.884;2022-12-20T10:16:44;100660.50;;;0.85;83.75
56721;BME280;53183;47.412;18.884;2022-12-20T10:22:08;100644.94;;;0.97;83.19
56721;BME280;53183;47.412;18.884;2022-12-20T10:24:37;100648.41;;;0.96;83.20
56721;BME280;53183;47.412;18.884;2022-12-20T10:27:14;100639.81;;;1.15;83.01
56721;BME280;53183;47.412;18.884;2022-12-20T10:29:42;100642.47;;;1.38;81.59
56721;BME280;53183;47.412;18.884;2022-12-20T10:32:16;100634.69;;;1.71;81.13
56721;BME280;53183;47.412;18.884;2022-12-20T10:34:55;100625.12;;;1.90;79.20
56721;BME280;53183;47.412;18.884;2022-12-20T10:37:23;100622.50;;;2.03;78.84
56721;BME280;53183;47.412;18.884;2022-12-20T10:39:51;100607.72;;;2.21;78.29
56721;BME280;53183;47.412;18.884;2022-12-20T10:45:01;100609.44;;;2.35;77.29
56721;BME280;53183;47.412;18.884;2022-12-20T10:50:20;100602.44;;;2.45;76.61
56721;BME280;53183;47.412;18.884;2022-12-20T10:55:38;100589.41;;;2.44;75.81
56721;BME280;53183;47.412;18.884;2022-12-20T11:01:13;100573.78;;;2.27;76.45
56721;BME280;53183;47.412;18.884;2022-12-20T11:04:23;100575.53;;;2.32;76.28
56721;BME280;53183;47.412;18.884;2022-12-20T11:06:52;100575.53;;;2.31;76.32
56721;BME280;53183;47.412;18.884;2022-12-20T11:09:30;100567.72;;;2.20;76.61
56721;BME280;53183;47.412;18.884;2022-12-20T11:12:15;100562.53;;;2.06;77.44
56721;BME280;53183;47.412;18.884;2022-12-20T11:14:44;100540.84;;;2.04;77.65
56721;BME280;53183;47.412;18.884;2022-12-20T11:17:36;100535.63;;;1.92;78.75
56721;BME280;53183;47.412;18.884;2022-12-20T11:22:54;100524.34;;;1.90;78.37
56721;BME280;53183;47.412;18.884;2022-12-20T11:31:37;100543.47;;;1.84;79.24
56721;BME280;53183;47.412;18.884;2022-12-20T11:39:31;100539.94;;;2.04;78.12
56721;BME280;53183;47.412;18.884;2022-12-20T11:45:01;100527.81;;;1.91;78.26
56721;BME280;53183;47.412;18.884;2022-12-20T11:53:15;100521.69;;;2.10;78.80
56721;BME280;53183;47.412;18.884;2022-12-20T11:55:49;100512.09;;;2.21;78.22
56721;BME280;53183;47.412;18.884;2022-12-20T11:58:26;100516.44;;;2.19;77.95
56721;BME280;53183;47.412;18.884;2022-12-20T12:01:15;100515.56;;;2.25;77.46
56721;BME280;53183;47.412;18.884;2022-12-20T12:04:13;100508.63;;;2.13;77.90
56721;BME280;53183;47.412;18.884;2022-12-20T12:06:50;100505.19;;;2.03;77.64
56721;BME280;53183;47.412;18.884;2022-12-20T12:09:31;100498.25;;;2.05;77.93
56721;BME280;53183;47.412;18.884;2022-12-20T12:17:59;100490.22;;;2.54;76.45
56721;BME280;53183;47.412;18.884;2022-12-20T12:23:18;100487.50;;;2.73;75.54
56721;BME280;53183;47.412;18.884;2022-12-20T12:25:47;100485.78;;;2.69;75.28
56721;BME280;53183;47.412;18.884;2022-12-20T12:28:17;100484.97;;;2.59;75.34
56721;BME280;53183;47.412;18.884;2022-12-20T12:31:08;100478.06;;;2.52;75.81
56721;BME280;53183;47.412;18.884;2022-12-20T12:33:47;100485.94;;;2.44;76.36
56721;BME280;53183;47.412;18.884;2022-12-20T12:36:42;100482.50;;;2.34;76.80
56721;BME280;53183;47.412;18.884;2022-12-20T12:45:31;100454.66;;;2.33;76.29
56721;BME280;53183;47.412;18.884;2022-12-20T12:48:12;100467.75;;;2.20;77.33
56721;BME280;53183;47.412;18.884;2022-12-20T12:50:45;100466.91;;;2.16;77.53
56721;BME280;53183;47.412;18.884;2022-12-20T12:53:40;100467.84;;;2.07;77.83
56721;BME280;53183;47.412;18.884;2022-12-20T13:01:52;100469.56;;;2.08;77.55
56721;BME280;53183;47.412;18.884;2022-12-20T13:04:28;100461.72;;;2.04;78.15
56721;BME280;53183;47.412;18.884;2022-12-20T13:07:02;100451.34;;;1.98;78.32
56721;BME280;53183;47.412;18.884;2022-12-20T13:09:48;100455.66;;;2.00;78.47
56721;BME280;53183;47.412;18.884;2022-12-20T13:17:55;100451.28;;;2.07;77.61
56721;BME280;53183;47.412;18.884;2022-12-20T13:20:34;100453.06;;;2.05;78.16
56721;BME280;53183;47.412;18.884;2022-12-20T13:25:47;100443.53;;;1.96;78.17
56721;BME280;53183;47.412;18.884;2022-12-20T13:30:47;100441.81;;;1.83;79.26
56721;BME280;53183;47.412;18.884;2022-12-20T13:43:44;100429.72;;;1.67;79.54
56721;BME280;53183;47.412;18.884;2022-12-20T13:46:19;100430.56;;;1.67;79.44
56721;BME280;53183;47.412;18.884;2022-12-20T13:51:19;100430.56;;;1.64;79.72
56721;BME280;53183;47.412;18.884;2022-12-20T13:53:55;100429.72;;;1.71;79.09
56721;BME280;53183;47.412;18.884;2022-12-20T13:58:54;100415.81;;;1.60;79.66
56721;BME280;53183;47.412;18.884;2022-12-20T14:01:24;100404.53;;;1.61;79.90
56721;BME280;53183;47.412;18.884;2022-12-20T14:03:52;100396.72;;;1.59;80.51
56721;BME280;53183;47.412;18.884;2022-12-20T14:06:22;100403.66;;;1.65;80.35
56721;BME280;53183;47.412;18.884;2022-12-20T14:08:53;100393.22;;;1.67;79.86
56721;BME280;53183;47.412;18.884;2022-12-20T14:11:22;100396.72;;;1.69;nan
56721;BME280;53183;47.412;18.884;2022-12-20T14:13:58;100388.03;;;1.63;80.13
56721;BME280;53183;47.412;18.884;2022-12-20T14:16:29;100395.84;;;1.60;80.00
56721;BME280;53183;47.412;18.884;2022-12-20T14:19:06;100395.88;;;1.51;80.19
56721;BME280;53183;47.412;18.884;2022-12-20T14:21:42;100398.50;;;1.48;80.27
56721;BME280;53183;47.412;18.884;2022-12-20T14:24:19;100388.97;;;1.36;81.14
56721;BME280;53183;47.412;18.884;2022-12-20T14:26:50;100393.31;;;1.39;80.61
56721;BME280;53183;47.412;18.884;2022-12-20T14:29:28;100387.22;;;1.34;80.63
56721;BME280;53183;47.412;18.884;2022-12-20T14:31:57;100375.13;;;1.25;81.30
56721;BME280;53183;47.412;18.884;2022-12-20T14:42:37;100352.59;;;0.97;84.00
56721;BME280;53183;47.412;18.884;2022-12-20T14:47:36;100346.50;;;0.88;84.60
56721;BME280;53183;47.412;18.884;2022-12-20T14:50:19;100346.50;;;0.88;84.60
56721;BME280;53183;47.412;18.884;2022-12-20T14:52:48;100352.59;;;0.89;84.80
56721;BME280;53183;47.412;18.884;2022-12-20T14:55:21;100363.00;;;0.86;85.00
56721;BME280;53183;47.412;18.884;2022-12-20T14:57:51;100350.00;;;0.80;85.30
56721;BME280;53183;47.412;18.884;2022-12-20T15:00:28;100351.72;;;0.72;85.81
56721;BME280;53183;47.412;18.884;2022-12-20T15:02:58;100350.88;;;0.69;86.47